Time;durP1;ratioP1;P1;durP2;ratioP2;P2;SDS_P1;SDS_P2;PMS_P1;PMS_P2;Temp;Humidity;BMP_temperature;BMP_pressure;BME280_temperature;BME280_humidity;BME280_pressure;Samples;Min_cycle;Max_cycle;Signal;HPM_P1;HPM_P2
2023/12/13 00:01:43;;;;;;;6.40;2.85;;;;;;;7.15;100.00;99505.19;6181994;23;20016;-88
2023/12/13 00:04:09;;;;;;;7.43;3.10;;;;;;;7.20;100.00;99513.41;6156340;23;20161;-89
2023/12/13 00:06:37;;;;;;;8.88;2.90;;;;;;;7.16;100.00;99509.50;6156701;23;20036;-90
2023/12/13 00:09:03;;;;;;;7.38;2.50;;;;;;;7.11;100.00;99504.72;6157009;23;20001;-89
2023/12/13 00:11:30;;;;;;;7.00;2.50;;;;;;;7.05;100.00;99489.59;6156257;23;20008;-89
2023/12/13 00:13:55;;;;;;;6.13;2.63;;;;;;;7.13;100.00;99508.03;6156429;23;20013;-89
2023/12/13 00:16:21;;;;;;;7.30;2.90;;;;;;;7.08;100.00;99499.81;6182701;23;20462;-89
2023/12/13 00:18:47;;;;;;;7.13;3.05;;;;;;;7.16;100.00;99509.50;6181611;23;20347;-89
2023/12/13 00:21:15;;;;;;;8.38;2.88;;;;;;;7.11;100.00;99502.09;6154637;23;20443;-89
2023/12/13 00:23:43;;;;;;;7.68;2.90;;;;;;;7.16;100.00;99511.31;6153960;23;20096;-90
2023/12/13 00:26:17;;;;;;;6.10;2.97;;;;;;;7.15;100.00;99501.75;6154455;23;20011;-91
2023/12/13 00:28:43;;;;;;;6.30;2.90;;;;;;;7.05;100.00;99486.16;6154145;23;20441;-90
2023/12/13 00:31:10;;;;;;;9.38;2.72;;;;;;;7.03;100.00;99499.50;6154606;23;20009;-90
2023/12/13 00:33:36;;;;;;;8.15;2.85;;;;;;;7.13;100.00;99513.31;6180987;23;20005;-89
2023/12/13 00:36:02;;;;;;;11.40;2.80;;;;;;;7.06;100.00;99499.16;6155022;23;20009;-89
2023/12/13 00:38:27;;;;;;;5.78;2.80;;;;;;;7.10;100.00;99505.72;6154365;23;20023;-88
2023/12/13 00:40:52;;;;;;;8.73;2.80;;;;;;;6.96;100.00;99480.09;6155108;23;20424;-90
2023/12/13 00:43:18;;;;;;;6.93;2.70;;;;;;;7.05;100.00;99496.69;6154576;23;20067;-89
2023/12/13 00:45:46;;;;;;;5.00;2.35;;;;;;;6.98;100.00;99478.09;6154792;23;20013;-89
2023/12/13 00:48:11;;;;;;;5.85;2.42;;;;;;;7.07;100.00;99498.19;6155440;23;20009;-90
2023/12/13 00:50:36;;;;;;;8.30;2.80;;;;;;;7.07;100.00;99494.72;6153504;23;20055;-90
2023/12/13 00:53:02;;;;;;;7.25;2.50;;;;;;;7.04;100.00;99485.31;6153670;23;20016;-89
2023/12/13 00:55:29;;;;;;;7.90;2.60;;;;;;;6.99;100.00;99477.09;6153446;23;20009;-89
2023/12/13 00:57:55;;;;;;;8.48;2.88;;;;;;;6.97;100.00;99476.47;6179521;23;20017;-90
2023/12/13 01:00:22;;;;;;;6.35;2.47;;;;;;;7.11;100.00;99496.81;6153413;23;20115;-90
2023/12/13 01:02:50;;;;;;;7.55;2.80;;;;;;;7.06;100.00;99485.97;6180260;23;20028;-90
2023/12/13 01:05:15;;;;;;;8.40;2.75;;;;;;;7.06;100.00;99488.59;6153506;23;20016;-89
2023/12/13 01:07:41;;;;;;;10.00;3.10;;;;;;;7.03;100.00;99481.06;6153962;23;20343;-89
2023/12/13 01:10:07;;;;;;;9.00;3.00;;;;;;;7.07;100.00;99490.28;6179939;23;20053;-89
2023/12/13 01:12:32;;;;;;;10.05;2.80;;;;;;;7.07;100.00;99485.00;6153683;23;20427;-89
2023/12/13 01:14:57;;;;;;;7.90;2.95;;;;;;;7.09;100.00;99490.91;6153924;23;20005;-90
2023/12/13 01:17:23;;;;;;;8.15;3.00;;;;;;;7.08;100.00;99486.63;6180341;23;20065;-89
2023/12/13 01:19:52;;;;;;;7.28;2.88;;;;;;;7.07;100.00;99492.91;6154053;23;20013;-91
2023/12/13 01:22:20;;;;;;;10.68;3.45;;;;;;;7.04;100.00;99490.59;6153685;23;20009;-89
2023/12/13 01:24:46;;;;;;;9.05;2.97;;;;;;;7.02;100.00;99487.31;6153422;23;20020;-90
2023/12/13 01:27:11;;;;;;;12.15;3.17;;;;;;;7.04;100.00;99492.41;6154018;23;20009;-90
2023/12/13 01:29:36;;;;;;;8.35;3.00;;;;;;;6.99;100.00;99482.38;6153366;23;20080;-90
2023/12/13 01:32:02;;;;;;;9.35;3.00;;;;;;;6.90;100.00;99468.41;6153385;23;20300;-90
2023/12/13 01:34:28;;;;;;;5.88;2.95;;;;;;;6.91;100.00;99469.25;6152838;23;20068;-91
2023/12/13 01:36:54;;;;;;;6.22;3.00;;;;;;;6.96;100.00;99469.56;6180171;23;20009;-90
2023/12/13 01:39:19;;;;;;;9.35;3.10;;;;;;;7.02;100.00;99481.22;6153707;23;20016;-91
2023/12/13 01:41:47;;;;;;;8.27;2.80;;;;;;;7.03;100.00;99478.41;6161426;23;20337;-90
2023/12/13 01:44:12;;;;;;;10.68;3.40;;;;;;;6.96;100.00;99477.47;6196881;23;20024;-89
2023/12/13 01:46:39;;;;;;;10.82;3.30;;;;;;;7.01;100.00;99485.69;6177499;23;19993;-89
2023/12/13 01:49:07;;;;;;;9.55;3.40;;;;;;;7.03;100.00;99486.31;6177574;23;20013;-90
2023/12/13 01:51:36;;;;;;;7.40;3.40;;;;;;;6.92;100.00;99470.88;6195536;23;20008;-91
2023/12/13 01:54:07;;;;;;;11.02;3.60;;;;;;;7.03;100.00;99498.66;6156511;23;20023;-90
2023/12/13 01:56:37;;;;;;;10.85;3.47;;;;;;;6.89;100.00;99468.56;6159939;23;20005;-89
2023/12/13 01:59:03;;;;;;;9.40;3.60;;;;;;;6.98;100.00;99488.66;6200302;23;20013;-91
2023/12/13 02:01:31;;;;;;;11.65;3.63;;;;;;;6.98;100.00;99488.66;6183773;23;20462;-90
2023/12/13 02:03:56;;;;;;;10.05;3.78;;;;;;;6.95;100.00;99481.06;6157827;23;20084;-90
2023/12/13 02:06:29;;;;;;;10.98;3.50;;;;;;;7.00;100.00;99490.13;6157507;23;20013;-90
2023/12/13 02:08:55;;;;;;;12.45;3.38;;;;;;;6.97;100.00;99484.38;6170449;23;20001;-90
2023/12/13 02:11:23;;;;;;;11.77;3.72;;;;;;;7.04;100.00;99493.22;6163588;23;20013;-90
2023/12/13 02:13:48;;;;;;;11.93;3.60;;;;;;;6.98;100.00;99480.75;6154698;23;20009;-91
2023/12/13 02:16:13;;;;;;;11.10;4.22;;;;;;;7.09;100.00;99498.81;6154170;23;20017;-90
2023/12/13 02:18:39;;;;;;;14.50;3.65;;;;;;;7.04;100.00;99485.31;6154179;23;20005;-90
2023/12/13 02:21:05;;;;;;;10.43;3.50;;;;;;;7.02;100.00;99482.03;6180733;23;20320;-90
2023/12/13 02:23:33;;;;;;;10.30;3.60;;;;;;;6.99;100.00;99482.38;6154284;23;20017;-90
2023/12/13 02:26:03;;;;;;;10.40;3.67;;;;;;;7.02;100.00;99482.03;6153132;23;20506;-90
2023/12/13 02:28:29;;;;;;;12.40;3.95;;;;;;;7.09;100.00;99488.28;6153288;23;20445;-90
2023/12/13 02:30:57;;;;;;;13.98;3.80;;;;;;;6.95;100.00;99465.25;6153517;23;20013;-89
2023/12/13 02:33:24;;;;;;;15.90;3.78;;;;;;;7.10;100.00;99489.91;6153629;23;20386;-90
2023/12/13 02:35:58;;;;;;;13.18;3.63;;;;;;;6.95;100.00;99462.63;6179657;23;20016;-90
2023/12/13 02:38:26;;;;;;;13.52;4.15;;;;;;;6.98;100.00;99464.94;6179495;23;20544;-91
2023/12/13 02:40:53;;;;;;;12.05;3.92;;;;;;;6.88;100.00;99453.75;6179381;23;20016;-90
2023/12/13 02:43:24;;;;;;;16.27;4.13;;;;;;;6.98;100.00;99475.47;6179650;23;20013;-90
2023/12/13 02:45:50;;;;;;;11.18;3.55;;;;;;;7.06;100.00;99483.31;6161678;23;20009;-90
2023/12/13 02:48:15;;;;;;;12.02;3.80;;;;;;;6.99;100.00;99469.19;6157005;23;20407;-91
2023/12/13 02:50:44;;;;;;;11.88;3.83;;;;;;;7.07;100.00;99478.88;6182117;23;20099;-90
2023/12/13 02:53:09;;;;;;;13.35;4.20;;;;;;;7.03;100.00;99465.25;6155345;23;20016;-89
2023/12/13 02:55:34;;;;;;;14.93;4.00;;;;;;;7.03;100.00;99465.25;6154902;23;20020;-89
2023/12/13 02:58:00;;;;;;;10.90;3.90;;;;;;;7.03;100.00;99467.88;6154901;23;20319;-91
2023/12/13 03:00:26;;;;;;;14.05;3.72;;;;;;;7.00;100.00;99457.66;6155403;23;20013;-90
2023/12/13 03:02:51;;;;;;;12.43;3.88;;;;;;;7.02;100.00;99453.06;6154934;23;20004;-90
2023/12/13 03:05:17;;;;;;;11.88;4.22;;;;;;;7.09;100.00;99467.19;6155501;23;20009;-90
2023/12/13 03:07:44;;;;;;;11.73;4.03;;;;;;;7.07;100.00;99466.53;6155398;23;20036;-91
2023/12/13 03:10:12;;;;;;;12.45;3.65;;;;;;;7.02;100.00;99466.22;6154987;23;20020;-91
2023/12/13 03:12:39;;;;;;;15.23;3.90;;;;;;;7.03;100.00;99462.59;6154835;23;20399;-89
2023/12/13 03:15:04;;;;;;;13.30;3.80;;;;;;;7.09;100.00;99468.97;6154260;23;20016;-89
2023/12/13 03:17:32;;;;;;;13.73;3.80;;;;;;;7.04;100.00;99456.34;6153433;23;20024;-89
2023/12/13 03:19:57;;;;;;;18.13;4.07;;;;;;;6.97;100.00;99443.00;6155157;23;20334;-90
2023/12/13 03:22:23;;;;;;;16.27;3.85;;;;;;;7.02;100.00;99458.31;6155179;23;20055;-90
2023/12/13 03:24:48;;;;;;;15.75;3.60;;;;;;;7.07;100.00;99456.00;6154990;23;20015;-90
2023/12/13 03:27:13;;;;;;;15.18;3.80;;;;;;;7.08;100.00;99449.72;6155337;23;20012;-90
2023/12/13 03:29:39;;;;;;;13.95;3.58;;;;;;;6.99;100.00;99440.19;6155304;23;20083;-90
2023/12/13 03:32:04;;;;;;;13.65;3.75;;;;;;;7.10;100.00;99458.28;6182879;23;20012;-89
2023/12/13 03:34:30;;;;;;;14.52;3.83;;;;;;;7.04;100.00;99453.69;6155664;23;20085;-89
2023/12/13 03:36:55;;;;;;;14.23;3.88;;;;;;;7.15;100.00;99459.59;6182539;23;20013;-90
2023/12/13 03:39:20;;;;;;;16.15;3.75;;;;;;;7.05;100.00;99436.88;6157460;23;20441;-90
2023/12/13 03:41:46;;;;;;;17.73;3.67;;;;;;;7.13;100.00;99450.03;6168161;23;19997;-89
2023/12/13 03:44:11;;;;;;;12.07;3.38;;;;;;;7.16;100.00;99455.94;6205954;23;20015;-90
2023/12/13 03:46:37;;;;;;;15.13;3.65;;;;;;;7.07;100.00;99442.81;6178857;23;19997;-89
2023/12/13 03:49:03;;;;;;;16.65;3.78;;;;;;;7.13;100.00;99451.84;6193137;23;20025;-89
2023/12/13 03:51:31;;;;;;;19.83;4.00;;;;;;;6.99;100.00;99427.03;6156629;23;20009;-89
2023/12/13 03:53:57;;;;;;;19.27;4.07;;;;;;;7.05;100.00;99423.69;6182110;23;20008;-89
2023/12/13 03:56:30;;;;;;;17.42;3.95;;;;;;;7.17;100.00;99441.75;6155835;23;20033;-90
2023/12/13 03:58:56;;;;;;;;;;;;;;;7.24;100.00;99447.97;6183921;23;20072;-89
2023/12/13 04:01:21;;;;;;;16.08;3.65;;;;;;;7.10;100.00;99426.63;6155847;23;20368;-91
2023/12/13 04:03:47;;;;;;;18.35;3.83;;;;;;;7.09;100.00;99419.72;6154792;23;20013;-90
2023/12/13 04:06:12;;;;;;;17.88;3.80;;;;;;;7.20;100.00;99446.69;6154121;23;20087;-91
2023/12/13 04:08:37;;;;;;;14.35;3.75;;;;;;;7.03;100.00;99417.78;6154275;23;20096;-90
2023/12/13 04:11:03;;;;;;;17.75;3.60;;;;;;;7.10;100.00;99426.63;6153808;23;20017;-90
2023/12/13 04:13:28;;;;;;;17.30;4.05;;;;;;;7.07;100.00;99416.47;6153906;23;20009;-89
2023/12/13 04:15:56;;;;;;;17.17;3.75;;;;;;;7.07;100.00;99413.81;6154609;23;20141;-89
2023/12/13 04:18:29;;;;;;;17.67;3.72;;;;;;;7.16;100.00;99434.84;6154355;23;20013;-89
2023/12/13 04:20:54;;;;;;;16.98;4.05;;;;;;;7.16;100.00;99430.41;6153971;23;20013;-89
2023/12/13 04:23:20;;;;;;;19.02;4.35;;;;;;;7.09;100.00;99419.72;6158180;23;20017;-88
2023/12/13 04:25:45;;;;;;;16.33;3.60;;;;;;;7.11;100.00;99428.28;6163463;23;20052;-90
2023/12/13 04:28:10;;;;;;;20.45;4.45;;;;;;;7.15;100.00;99438.50;6154034;23;20500;-90
2023/12/13 04:30:36;;;;;;;20.38;4.07;;;;;;;7.16;100.00;99434.84;6153582;23;20024;-89
2023/12/13 04:33:01;;;;;;;23.33;4.38;;;;;;;7.20;100.00;99436.16;6180391;23;20008;-90
2023/12/13 04:35:27;;;;;;;17.50;4.03;;;;;;;7.14;100.00;99432.38;6180096;23;20001;-88
2023/12/13 04:37:52;;;;;;;16.75;4.00;;;;;;;7.12;100.00;99429.91;6180435;23;20399;-90
2023/12/13 04:40:18;;;;;;;22.67;4.30;;;;;;;7.12;100.00;99424.63;6153796;23;20005;-89
2023/12/13 04:42:43;;;;;;;19.52;4.13;;;;;;;7.12;100.00;99424.63;6154167;23;20335;-89
2023/12/13 04:45:09;;;;;;;19.02;4.50;;;;;;;7.21;100.00;99429.88;6153662;23;20338;-90
2023/12/13 04:47:37;;;;;;;20.10;4.40;;;;;;;7.22;100.00;99436.78;6154315;23;20377;-90
2023/12/13 04:50:02;;;;;;;18.92;3.97;;;;;;;7.18;100.00;99427.59;6153778;23;20094;-89
2023/12/13 04:52:28;;;;;;;19.25;3.97;;;;;;;7.23;100.00;99435.78;6153906;23;20404;-89
2023/12/13 04:54:53;;;;;;;17.13;4.28;;;;;;;7.22;100.00;99429.72;6153601;23;20016;-89
2023/12/13 04:57:18;;;;;;;23.23;4.40;;;;;;;7.22;100.00;99432.34;6154166;23;20013;-87
2023/12/13 04:59:44;;;;;;;22.73;4.40;;;;;;;7.20;100.00;99426.41;6153586;23;20103;-90
2023/12/13 05:02:09;;;;;;;22.17;4.32;;;;;;;7.26;100.00;99424.91;6180975;23;20327;-89
2023/12/13 05:04:34;;;;;;;22.00;4.50;;;;;;;7.11;100.00;99409.03;6154176;23;20432;-89
2023/12/13 05:07:00;;;;;;;17.58;4.07;;;;;;;7.22;100.00;99424.44;6154237;23;20386;-90
2023/12/13 05:09:25;;;;;;;19.27;4.80;;;;;;;7.19;100.00;99414.22;6180166;23;20005;-89
2023/12/13 05:11:50;;;;;;;22.35;4.60;;;;;;;7.12;100.00;99408.81;6153606;23;20091;-89
2023/12/13 05:14:16;;;;;;;17.52;4.30;;;;;;;7.21;100.00;99411.44;6153388;23;20009;-91
2023/12/13 05:16:43;;;;;;;23.42;4.68;;;;;;;7.27;100.00;99427.34;6154898;23;20009;-87
2023/12/13 05:19:09;;;;;;;19.88;4.47;;;;;;;7.24;100.00;99416.34;6178288;23;20103;-87
2023/12/13 05:21:34;;;;;;;23.08;5.13;;;;;;;7.17;100.00;99399.59;6177815;23;20091;-87
2023/12/13 05:23:59;;;;;;;17.30;4.10;;;;;;;7.20;100.00;99404.53;6179203;23;20088;-89
2023/12/13 05:26:24;;;;;;;20.13;4.97;;;;;;;7.29;100.00;99416.63;6153236;23;20082;-89
2023/12/13 05:28:50;;;;;;;20.10;4.40;;;;;;;7.25;100.00;99410.06;6180180;23;20032;-90
2023/12/13 05:31:25;;;;;;;18.20;4.57;;;;;;;7.24;100.00;99413.69;6179134;23;20036;-89
2023/12/13 05:33:52;;;;;;;20.02;4.75;;;;;;;7.16;100.00;99404.06;6180362;23;20040;-90
2023/12/13 05:36:17;;;;;;;17.10;4.50;;;;;;;7.21;100.00;99412.22;6155251;23;20366;-91
2023/12/13 05:38:46;;;;;;;20.08;4.22;;;;;;;7.29;100.00;99414.00;6163778;23;20065;-89
2023/12/13 05:41:11;;;;;;;23.38;4.85;;;;;;;7.26;100.00;99419.63;6178886;23;20008;-88
2023/12/13 05:43:37;;;;;;;22.13;4.53;;;;;;;7.23;100.00;99409.44;6205195;23;19993;-88
2023/12/13 05:46:04;;;;;;;17.50;4.05;;;;;;;7.16;100.00;99404.06;6197183;23;20021;-89
2023/12/13 05:48:29;;;;;;;21.45;4.63;;;;;;;7.28;100.00;99422.91;6159646;23;20013;-89
2023/12/13 05:50:54;;;;;;;17.48;4.15;;;;;;;7.24;100.00;99416.34;6157591;23;20105;-89
2023/12/13 05:53:20;;;;;;;19.80;4.38;;;;;;;7.21;100.00;99411.44;6182797;23;20419;-90
2023/12/13 05:55:45;;;;;;;19.85;4.85;;;;;;;7.15;100.00;99401.59;6156298;23;20056;-91
2023/12/13 05:58:10;;;;;;;21.58;4.53;;;;;;;7.22;100.00;99418.34;6156456;23;20009;-89
2023/12/13 06:00:36;;;;;;;25.02;5.18;;;;;;;7.24;100.00;99426.88;6157365;23;20190;-91
2023/12/13 06:03:01;;;;;;;19.58;4.10;;;;;;;7.21;100.00;99427.25;6156231;23;20009;-89
2023/12/13 06:05:26;;;;;;;20.88;4.28;;;;;;;7.21;100.00;99425.41;6182451;23;20016;-90
2023/12/13 06:07:52;;;;;;;23.95;5.05;;;;;;;7.17;100.00;99412.75;6155213;23;20013;-91
2023/12/13 06:10:17;;;;;;;22.58;4.90;;;;;;;7.16;100.00;99409.31;6155242;23;20009;-91
2023/12/13 06:12:44;;;;;;;22.05;4.53;;;;;;;7.21;100.00;99416.69;6155014;23;20008;-90
2023/12/13 06:15:09;;;;;;;20.08;4.28;;;;;;;7.22;100.00;99418.34;6154831;23;20100;-89
2023/12/13 06:17:35;;;;;;;20.65;4.88;;;;;;;7.22;100.00;99424.44;6154134;23;20447;-90
2023/12/13 06:20:00;;;;;;;19.35;4.85;;;;;;;7.10;100.00;99405.56;6154626;23;20009;-91
2023/12/13 06:22:26;;;;;;;20.25;4.50;;;;;;;7.23;100.00;99435.78;6154511;23;20515;-90
2023/12/13 06:24:51;;;;;;;17.48;5.07;;;;;;;7.20;100.00;99428.25;6181198;23;20027;-89
2023/12/13 06:27:17;;;;;;;22.33;4.95;;;;;;;7.11;100.00;99417.72;6154441;23;20009;-90
2023/12/13 06:29:42;;;;;;;21.40;4.57;;;;;;;7.21;100.00;99435.16;6154044;23;20009;-91
2023/12/13 06:32:07;;;;;;;18.33;4.35;;;;;;;7.18;100.00;99432.84;6154524;23;20017;-90
2023/12/13 06:34:33;;;;;;;20.75;4.88;;;;;;;7.17;100.00;99436.50;6154519;23;20016;-90
2023/12/13 06:36:58;;;;;;;22.05;5.05;;;;;;;7.16;100.00;99432.22;6153215;23;20009;-90
2023/12/13 06:39:23;;;;;;;20.50;4.97;;;;;;;7.20;100.00;99436.16;6179450;23;20013;-91
2023/12/13 06:41:49;;;;;;;22.33;5.00;;;;;;;7.19;100.00;99437.97;6165189;23;20020;-89
2023/12/13 06:44:17;;;;;;;20.23;5.03;;;;;;;7.21;100.00;99437.78;6157002;23;20009;-90
2023/12/13 06:46:43;;;;;;;22.27;5.20;;;;;;;7.17;100.00;99436.50;6153311;23;20009;-90
2023/12/13 06:49:09;;;;;;;19.55;4.88;;;;;;;7.22;100.00;99445.53;6153447;23;20076;-92
2023/12/13 06:51:35;;;;;;;18.40;5.22;;;;;;;7.20;100.00;99441.44;6180017;23;20019;-88
2023/12/13 06:54:00;;;;;;;19.50;5.00;;;;;;;7.20;100.00;99438.78;6153365;23;20834;-91
2023/12/13 06:56:26;;;;;;;21.77;5.25;;;;;;;7.18;100.00;99438.13;6153064;23;20017;-89
2023/12/13 06:58:51;;;;;;;16.33;5.18;;;;;;;7.17;100.00;99436.50;6152804;23;20096;-89
2023/12/13 07:01:17;;;;;;;19.98;5.00;;;;;;;7.09;100.00;99425.00;6153639;23;20051;-91
2023/12/13 07:03:42;;;;;;;16.52;5.53;;;;;;;7.16;100.00;99440.97;6152909;23;20016;-89
2023/12/13 07:06:07;;;;;;;19.05;5.30;;;;;;;7.18;100.00;99438.97;6179756;23;20005;-89
2023/12/13 07:08:34;;;;;;;20.35;5.70;;;;;;;7.18;100.00;99443.41;6152803;23;20008;-89
2023/12/13 07:11:03;;;;;;;18.98;5.30;;;;;;;7.07;100.00;99432.28;6179244;23;20005;-89
2023/12/13 07:13:29;;;;;;;16.52;5.25;;;;;;;7.05;100.00;99428.97;6152820;23;20304;-89
2023/12/13 07:15:54;;;;;;;17.98;5.65;;;;;;;7.18;100.00;99444.22;6179458;23;20058;-88
2023/12/13 07:18:24;;;;;;;21.52;5.80;;;;;;;7.20;100.00;99458.06;6152718;23;20012;-88
2023/12/13 07:20:50;;;;;;;16.08;5.72;;;;;;;7.03;100.00;99425.69;6179063;23;20020;-89
2023/12/13 07:23:15;;;;;;;19.75;5.78;;;;;;;7.12;100.00;99439.66;6152156;23;20131;-88
2023/12/13 07:25:41;;;;;;;19.90;5.97;;;;;;;7.10;100.00;99442.47;6179581;23;20036;-90
2023/12/13 07:28:13;;;;;;;21.60;6.53;;;;;;;7.18;100.00;99452.13;6152760;23;20470;-88
2023/12/13 07:30:39;;;;;;;18.38;6.18;;;;;;;7.05;100.00;99439.50;6152821;23;20005;-88
2023/12/13 07:33:05;;;;;;;19.30;6.32;;;;;;;7.04;100.00;99437.03;6181110;23;20005;-88
2023/12/13 07:35:30;;;;;;;21.48;6.63;;;;;;;7.04;100.00;99437.88;6155695;23;20013;-89
2023/12/13 07:37:55;;;;;;;19.30;6.35;;;;;;;7.08;100.00;99439.19;6179167;23;20012;-89
2023/12/13 07:40:21;;;;;;;18.63;6.20;;;;;;;7.15;100.00;99456.94;6180307;23;20062;-89
2023/12/13 07:42:46;;;;;;;18.38;6.32;;;;;;;7.13;100.00;99450.03;6205367;23;20013;-89
2023/12/13 07:45:13;;;;;;;20.45;6.13;;;;;;;7.12;100.00;99452.84;6158277;23;20013;-87
2023/12/13 07:47:38;;;;;;;17.45;6.20;;;;;;;7.18;100.00;99459.22;6183150;23;20009;-87
2023/12/13 07:50:06;;;;;;;17.38;6.40;;;;;;;7.07;100.00;99437.53;6181659;23;20070;-87
2023/12/13 07:52:31;;;;;;;18.80;6.50;;;;;;;7.10;100.00;99447.72;6180845;23;20013;-87
2023/12/13 07:54:56;;;;;;;18.05;6.50;;;;;;;7.09;100.00;99443.47;6181032;23;20321;-87
2023/12/13 07:57:22;;;;;;;18.70;6.25;;;;;;;7.08;100.00;99444.47;6184398;23;20024;-88
2023/12/13 07:59:47;;;;;;;18.08;6.93;;;;;;;7.15;100.00;99457.75;6181288;23;20032;-87
2023/12/13 08:02:12;;;;;;;21.67;7.03;;;;;;;7.10;100.00;99446.91;6153846;23;20013;-88
2023/12/13 08:04:41;;;;;;;20.40;6.68;;;;;;;7.09;100.00;99445.25;6181113;23;20055;-88
2023/12/13 08:07:06;;;;;;;18.35;7.30;;;;;;;7.18;100.00;99459.22;6181997;23;20012;-88
2023/12/13 08:09:32;;;;;;;19.65;6.78;;;;;;;7.15;100.00;99451.66;6180644;23;20009;-87
2023/12/13 08:11:58;;;;;;;22.55;6.88;;;;;;;7.11;100.00;99446.72;6180481;23;20036;-89
2023/12/13 08:14:29;;;;;;;19.90;6.75;;;;;;;7.12;100.00;99456.28;6181134;23;20009;-88
2023/12/13 08:16:54;;;;;;;19.60;6.93;;;;;;;6.98;100.00;99428.03;6154172;23;20021;-88
2023/12/13 08:19:20;;;;;;;22.17;7.00;;;;;;;7.02;100.00;99434.59;6181748;23;20016;-89
2023/12/13 08:21:45;;;;;;;17.75;7.10;;;;;;;7.20;100.00;99468.59;6180917;23;20027;-89
2023/12/13 08:24:11;;;;;;;16.98;7.03;;;;;;;7.08;100.00;99444.47;6180749;23;20005;-90
2023/12/13 08:26:36;;;;;;;21.95;7.03;;;;;;;7.15;100.00;99456.94;6154228;23;20075;-89
2023/12/13 08:29:01;;;;;;;17.75;6.20;;;;;;;7.09;100.00;99446.09;6181426;23;20129;-89
2023/12/13 08:31:27;;;;;;;20.15;6.68;;;;;;;7.17;100.00;99458.41;6180654;23;20009;-89
2023/12/13 08:33:52;;;;;;;18.08;6.18;;;;;;;7.20;100.00;99463.31;6154442;23;20020;-90
2023/12/13 08:36:17;;;;;;;20.75;6.32;;;;;;;7.25;100.00;99473.34;6155106;23;20009;-90
2023/12/13 08:38:45;;;;;;;21.13;6.45;;;;;;;7.24;100.00;99474.34;6155382;23;20019;-92
2023/12/13 08:41:13;;;;;;;23.67;6.60;;;;;;;7.06;100.00;99449.06;6154508;23;20013;-89
2023/12/13 08:43:39;;;;;;;19.38;6.32;;;;;;;7.25;100.00;99470.72;6155056;23;20009;-93
2023/12/13 08:46:04;;;;;;;23.48;6.25;;;;;;;7.34;100.00;99489.94;6154482;23;20005;-89
2023/12/13 08:48:30;;;;;;;23.63;6.13;;;;;;;7.36;100.00;99482.69;6180896;23;20457;-88
2023/12/13 08:50:56;;;;;;;23.25;6.47;;;;;;;7.38;100.00;99492.09;6180287;23;20024;-90
2023/12/13 08:53:22;;;;;;;20.83;6.65;;;;;;;7.37;100.00;99484.34;6155961;23;20008;-91
2023/12/13 08:55:47;;;;;;;21.42;5.90;;;;;;;7.36;100.00;99482.69;6154899;23;20435;-90
2023/12/13 08:58:27;;;;;;;20.92;6.60;;;;;;;7.48;100.00;99493.66;6159450;23;19989;-90
2023/12/13 09:01:04;;;;;;;19.00;6.50;;;;;;;7.36;100.00;99472.94;6156921;23;20005;-92
2023/12/13 09:03:50;;;;;;;18.55;6.22;;;;;;;7.38;100.00;99470.97;6155424;23;20461;-90
2023/12/13 09:06:27;;;;;;;19.45;6.55;;;;;;;7.40;100.00;99474.25;6183068;23;20092;-91
2023/12/13 09:08:57;;;;;;;22.05;6.57;;;;;;;7.50;100.00;99484.56;6156149;23;20068;-91
2023/12/13 09:11:31;;;;;;;24.42;6.78;;;;;;;7.52;100.00;99487.03;6155102;23;20017;-91
2023/12/13 09:14:28;;;;;;;;;;;;;;;;;;;;;
2023/12/13 09:16:53;;;;;;;21.85;6.80;;;;;;;7.66;100.00;99507.38;6119820;23;20097;-90
2023/12/13 09:19:32;;;;;;;16.73;6.43;;;;;;;7.65;100.00;99516.31;6118706;23;20033;-94
2023/12/13 09:22:03;;;;;;;17.25;6.22;;;;;;;7.52;100.00;99492.31;6095216;23;20009;-91
2023/12/13 09:24:29;;;;;;;24.55;7.15;;;;;;;7.59;100.00;99495.91;6096967;23;20841;-91
2023/12/13 09:27:05;;;;;;;20.00;6.75;;;;;;;7.69;100.00;99513.34;6121880;23;20157;-91
2023/12/13 09:29:36;;;;;;;21.00;6.75;;;;;;;7.50;100.00;99483.78;6099983;23;20057;-92
2023/12/13 09:32:07;;;;;;;21.58;6.90;;;;;;;7.56;100.00;99492.78;6098136;23;20041;-89
2023/12/13 09:34:32;;;;;;;19.05;6.40;;;;;;;7.67;100.00;99509.06;6109916;23;20014;-89
2023/12/13 09:36:58;;;;;;;20.63;6.55;;;;;;;7.74;100.00;99516.28;6142977;23;20002;-88
2023/12/13 09:39:25;;;;;;;21.73;7.03;;;;;;;7.62;100.00;99500.00;6095343;23;20384;-88
2023/12/13 09:42:05;;;;;;;20.60;6.70;;;;;;;7.77;100.00;99526.47;6107776;23;20109;-89
2023/12/13 09:44:32;;;;;;;18.67;6.68;;;;;;;7.71;100.00;99521.88;6101679;23;20104;-89
2023/12/13 09:47:03;;;;;;;18.45;6.70;;;;;;;7.67;100.00;99519.59;6098455;23;20058;-91
2023/12/13 09:49:29;;;;;;;20.58;7.38;;;;;;;7.72;100.00;99520.88;6094955;23;20043;-90
2023/12/13 09:51:55;;;;;;;21.13;6.82;;;;;;;7.79;100.00;99535.00;6137682;23;20514;-90
2023/12/13 09:54:21;;;;;;;19.08;7.13;;;;;;;7.74;100.00;99526.81;6155667;23;20473;-88
2023/12/13 09:56:48;;;;;;;23.83;7.53;;;;;;;7.73;100.00;99530.44;6154485;23;20012;-89
2023/12/13 09:59:15;;;;;;;19.33;7.18;;;;;;;7.74;100.00;99532.09;6155006;23;20061;-88
2023/12/13 10:01:42;;;;;;;19.80;7.53;;;;;;;7.67;100.00;99527.53;6156533;23;20012;-89
2023/12/13 10:04:08;;;;;;;20.70;7.30;;;;;;;7.73;100.00;99541.00;6158669;23;20005;-89
2023/12/13 10:06:33;;;;;;;19.42;7.05;;;;;;;7.75;100.00;99544.28;6158688;23;20008;-90
2023/12/13 10:08:58;;;;;;;14.18;6.65;;;;;;;7.77;100.00;99552.84;6156047;23;20019;-91
2023/12/13 10:11:24;;;;;;;16.20;6.55;;;;;;;7.69;100.00;99534.44;6156432;23;20427;-89
2023/12/13 10:13:50;;;;;;;15.50;6.80;;;;;;;7.71;100.00;99550.91;6155109;23;20048;-90
2023/12/13 10:16:15;;;;;;;16.42;7.30;;;;;;;7.73;100.00;99551.53;6157107;23;20064;-89
2023/12/13 10:18:42;;;;;;;17.17;7.20;;;;;;;7.76;100.00;99556.50;6157587;23;20028;-89
2023/12/13 10:21:10;;;;;;;15.38;7.20;;;;;;;7.75;100.00;99560.94;6159066;23;20024;-89
2023/12/13 10:23:36;;;;;;;19.95;8.20;;;;;;;7.71;100.00;99556.19;6150267;23;20137;-87
2023/12/13 10:26:03;;;;;;;14.65;7.22;;;;;;;7.73;100.00;99559.47;6156590;23;20012;-89
2023/12/13 10:28:28;;;;;;;23.13;7.70;;;;;;;7.67;100.00;99553.91;6159177;23;20288;-88
2023/12/13 10:30:53;;;;;;;18.25;7.32;;;;;;;7.63;100.00;99547.34;6155476;23;20016;-88
2023/12/13 10:33:19;;;;;;;22.85;8.52;;;;;;;7.62;100.00;99552.78;6182392;23;20011;-89
2023/12/13 10:35:46;;;;;;;16.73;7.50;;;;;;;7.57;100.00;99541.91;6154005;23;20020;-87
2023/12/13 10:38:15;;;;;;;19.63;7.63;;;;;;;7.59;100.00;99551.31;6181189;23;20470;-89
2023/12/13 10:40:42;;;;;;;19.88;7.90;;;;;;;7.60;100.00;99546.84;6155052;23;20108;-90
2023/12/13 10:43:10;;;;;;;22.40;8.48;;;;;;;7.67;100.00;99559.19;6156108;23;20399;-89
2023/12/13 10:45:40;;;;;;;22.98;7.85;;;;;;;7.68;100.00;99557.34;6159181;23;20009;-90
2023/12/13 10:48:08;;;;;;;18.13;7.70;;;;;;;7.62;100.00;99542.22;6155013;23;20005;-90
2023/12/13 10:50:35;;;;;;;21.73;7.80;;;;;;;7.58;100.00;99536.47;6159542;23;20454;-89
2023/12/13 10:53:01;;;;;;;21.88;8.05;;;;;;;7.72;100.00;99556.03;6155256;23;20097;-89
2023/12/13 10:55:27;;;;;;;23.45;7.72;;;;;;;7.62;100.00;99545.69;6154019;23;20009;-89
2023/12/13 10:57:54;;;;;;;22.05;7.80;;;;;;;7.74;100.00;99553.22;6184789;23;20076;-89
2023/12/13 11:00:20;;;;;;;19.63;7.57;;;;;;;7.63;100.00;99543.84;6158695;23;20067;-90
2023/12/13 11:02:53;;;;;;;20.45;7.80;;;;;;;7.68;100.00;99544.16;6158059;23;20115;-89
2023/12/13 11:05:19;;;;;;;19.95;7.35;;;;;;;7.69;100.00;99545.00;6156897;23;20088;-88
2023/12/13 11:07:46;;;;;;;19.30;7.07;;;;;;;7.72;100.00;99549.91;6155432;23;20016;-87
2023/12/13 11:10:13;;;;;;;21.17;6.70;;;;;;;7.69;100.00;99547.63;6157972;23;20005;-88
2023/12/13 11:12:52;;;;;;;18.90;6.78;;;;;;;7.75;100.00;99554.84;6158056;23;20072;-88
2023/12/13 11:15:19;;;;;;;18.10;6.60;;;;;;;7.65;100.00;99545.31;6158557;23;20005;-87
2023/12/13 11:17:59;;;;;;;17.67;6.70;;;;;;;7.66;100.00;99540.88;6194196;23;20460;-88
2023/12/13 11:20:24;;;;;;;18.30;6.68;;;;;;;7.85;100.00;99573.09;6168024;23;20009;-88
2023/12/13 11:22:54;;;;;;;18.67;6.45;;;;;;;7.64;100.00;99543.69;6168706;23;20351;-89
2023/12/13 11:25:34;;;;;;;18.75;6.50;;;;;;;7.67;100.00;99543.34;6169859;23;20020;-89